createdAt,value
2023-01-13T00:00:38.563Z,3.30
2023-01-13T00:03:47.908Z,3.36
2023-01-13T00:06:55.976Z,3.32
2023-01-13T00:10:03.960Z,3.30
2023-01-13T00:13:12.255Z,3.30
2023-01-13T00:16:22.278Z,3.30
2023-01-13T00:19:30.294Z,3.30
2023-01-13T00:22:40.482Z,3.30
2023-01-13T00:25:48.595Z,3.26
2023-01-13T00:29:01.570Z,3.20
2023-01-13T00:32:09.745Z,3.20
2023-01-13T00:35:18.263Z,3.10
2023-01-13T00:38:26.296Z,3.10
2023-01-13T00:41:54.352Z,3.00
2023-01-13T00:45:02.964Z,2.90
2023-01-13T00:48:11.070Z,2.90
2023-01-13T00:51:21.367Z,2.80
2023-01-13T00:54:29.436Z,2.70
2023-01-13T00:57:38.001Z,2.70
2023-01-13T01:00:46.816Z,2.70
2023-01-13T01:03:56.172Z,2.70
2023-01-13T01:07:04.265Z,2.64
2023-01-13T01:10:14.422Z,2.60
2023-01-13T01:13:26.049Z,2.60
2023-01-13T01:16:35.678Z,2.60
2023-01-13T01:19:43.718Z,2.60
2023-01-13T01:22:51.713Z,2.60
2023-01-13T01:26:02.928Z,2.60
2023-01-13T01:29:16.477Z,2.60
2023-01-13T01:32:28.220Z,2.58
2023-01-13T01:35:40.561Z,2.50
2023-01-13T01:38:49.410Z,2.50
2023-01-13T01:42:14.830Z,2.50
2023-01-13T01:45:26.525Z,2.50
2023-01-13T01:48:38.415Z,2.46
2023-01-13T01:51:52.663Z,2.46
2023-01-13T01:55:04.661Z,2.40
2023-01-13T01:58:21.197Z,2.40
2023-01-13T02:01:29.789Z,2.40
2023-01-13T02:04:50.413Z,2.40
2023-01-13T02:08:01.271Z,2.38
2023-01-13T02:11:45.207Z,2.38
2023-01-13T02:14:53.034Z,2.36
2023-01-13T02:18:33.452Z,2.38
2023-01-13T02:22:12.692Z,2.30
2023-01-13T02:25:59.410Z,2.30
2023-01-13T02:29:59.286Z,2.30
2023-01-13T02:33:27.451Z,2.30
2023-01-13T02:36:48.591Z,2.28
2023-01-13T02:40:03.551Z,2.20
2023-01-13T02:43:37.126Z,2.20
2023-01-13T02:46:54.723Z,2.10
2023-01-13T02:50:07.250Z,2.10
2023-01-13T02:53:21.531Z,2.10
2023-01-13T02:56:33.653Z,2.02
2023-01-13T02:59:44.640Z,2.10
2023-01-13T03:02:54.157Z,2.10
2023-01-13T03:06:19.370Z,2.10
2023-01-13T03:09:35.373Z,2.14
2023-01-13T03:12:56.894Z,2.18
2023-01-13T03:16:17.965Z,2.10
2023-01-13T03:19:44.251Z,2.10
2023-01-13T03:23:02.387Z,2.00
2023-01-13T03:26:18.691Z,2.00
2023-01-13T03:29:31.884Z,2.00
2023-01-13T03:32:45.576Z,1.94
2023-01-13T03:35:59.629Z,1.94
2023-01-13T03:39:13.828Z,1.98
2023-01-13T03:42:26.697Z,2.00
2023-01-13T03:45:39.949Z,2.00
2023-01-13T03:48:53.331Z,2.00
2023-01-13T03:52:06.588Z,2.00
2023-01-13T03:55:19.748Z,1.94
2023-01-13T03:58:33.903Z,1.94
2023-01-13T04:01:51.630Z,1.90
2023-01-13T04:05:04.275Z,1.90
2023-01-13T04:08:22.198Z,1.90
2023-01-13T04:11:36.738Z,1.90
2023-01-13T04:14:46.751Z,1.90
2023-01-13T04:17:56.018Z,1.90
2023-01-13T04:21:05.601Z,1.90
2023-01-13T04:24:14.467Z,1.90
2023-01-13T04:27:22.353Z,1.90
2023-01-13T04:30:30.708Z,1.90
2023-01-13T04:33:39.340Z,1.90
2023-01-13T04:36:47.089Z,1.90
2023-01-13T04:39:55.393Z,1.90
2023-01-13T04:43:03.318Z,1.90
2023-01-13T04:46:11.545Z,1.90
2023-01-13T04:49:19.410Z,1.84
2023-01-13T04:52:27.334Z,1.84
2023-01-13T04:55:35.395Z,1.84
2023-01-13T04:58:43.652Z,1.90
2023-01-13T05:01:51.701Z,1.90
2023-01-13T05:05:00.489Z,1.90
2023-01-13T05:08:09.239Z,1.90
2023-01-13T05:11:35.097Z,1.94
2023-01-13T05:15:01.171Z,1.90
2023-01-13T05:18:10.400Z,1.90
2023-01-13T05:21:36.203Z,1.80
2023-01-13T05:25:01.703Z,1.80
2023-01-13T05:28:10.279Z,1.70
2023-01-13T05:31:18.288Z,1.70
2023-01-13T05:34:26.169Z,1.70
2023-01-13T05:37:34.604Z,1.70
2023-01-13T05:41:02.468Z,1.70
2023-01-13T05:44:10.735Z,1.80
2023-01-13T05:47:18.470Z,1.80
2023-01-13T05:50:26.784Z,1.80
2023-01-13T05:53:35.279Z,1.90
2023-01-13T05:56:48.220Z,1.90
2023-01-13T05:59:56.108Z,2.00
2023-01-13T06:03:04.517Z,2.00
2023-01-13T06:06:13.061Z,2.00
2023-01-13T06:09:23.040Z,2.00
2023-01-13T06:12:30.906Z,2.00
2023-01-13T06:15:38.800Z,2.00
2023-01-13T06:18:46.877Z,2.00
2023-01-13T06:21:57.952Z,2.02
2023-01-13T06:25:09.323Z,2.08
2023-01-13T06:28:17.393Z,2.06
2023-01-13T06:31:28.855Z,2.10
2023-01-13T06:34:39.504Z,2.10
2023-01-13T06:37:52.192Z,2.10
2023-01-13T06:41:00.240Z,2.10
2023-01-13T06:44:08.835Z,2.10
2023-01-13T06:47:16.698Z,2.20
2023-01-13T06:50:26.304Z,2.20
2023-01-13T06:53:34.584Z,2.26
2023-01-13T06:56:42.328Z,2.30
2023-01-13T06:59:50.735Z,2.30
2023-01-13T07:03:08.552Z,2.30
2023-01-13T07:06:16.488Z,2.30
2023-01-13T07:09:24.672Z,2.28
2023-01-13T07:12:52.825Z,2.20
2023-01-13T07:16:03.611Z,2.20
2023-01-13T07:19:11.747Z,2.20
2023-01-13T07:22:19.639Z,2.28
2023-01-13T07:25:27.539Z,2.30
2023-01-13T07:28:36.897Z,2.40
2023-01-13T07:31:45.089Z,2.50
2023-01-13T07:34:52.870Z,2.50
2023-01-13T07:38:00.730Z,2.60
2023-01-13T07:41:22.789Z,2.70
2023-01-13T07:44:30.891Z,2.80
2023-01-13T07:47:38.933Z,2.90
2023-01-13T07:50:47.361Z,3.06
2023-01-13T07:53:55.564Z,3.20
2023-01-13T07:57:03.469Z,3.30
2023-01-13T08:00:14.763Z,3.40
2023-01-13T08:03:22.794Z,3.40
2023-01-13T08:06:30.820Z,3.44
2023-01-13T08:09:39.566Z,3.44
2023-01-13T08:13:05.163Z,3.46
2023-01-13T08:16:16.255Z,3.40
2023-01-13T08:19:24.229Z,3.40
2023-01-13T08:22:33.548Z,3.40
2023-01-13T08:25:41.866Z,3.40
2023-01-13T08:28:49.941Z,3.40
2023-01-13T08:31:57.777Z,3.40
2023-01-13T08:35:05.820Z,3.40
2023-01-13T08:38:14.028Z,3.40
2023-01-13T08:41:36.098Z,3.50
2023-01-13T08:44:44.089Z,3.50
2023-01-13T08:47:51.934Z,3.50
2023-01-13T08:51:07.882Z,3.60
2023-01-13T08:54:16.451Z,3.70
2023-01-13T08:57:24.758Z,3.80
2023-01-13T09:00:32.801Z,3.96
2023-01-13T09:03:41.993Z,4.14
2023-01-13T09:06:50.567Z,4.30
2023-01-13T09:09:59.112Z,4.50
2023-01-13T09:13:15.098Z,4.66
2023-01-13T09:16:23.016Z,4.76
2023-01-13T09:19:31.871Z,4.80
2023-01-13T09:22:41.092Z,4.80
2023-01-13T09:25:49.454Z,4.80
2023-01-13T09:28:57.354Z,4.80
2023-01-13T09:32:05.612Z,4.70
2023-01-13T09:35:14.144Z,4.68
2023-01-13T09:38:22.182Z,4.60
2023-01-13T09:41:50.882Z,4.60
2023-01-13T09:45:06.066Z,4.60
2023-01-13T09:48:23.074Z,4.60
2023-01-13T09:51:37.375Z,4.60
2023-01-13T09:54:49.674Z,4.70
2023-01-13T09:57:58.213Z,4.70
2023-01-13T10:01:23.377Z,4.70
2023-01-13T10:04:31.657Z,4.68
2023-01-13T10:07:49.431Z,4.50
2023-01-13T10:11:01.218Z,4.40
2023-01-13T10:14:28.703Z,4.40
2023-01-13T10:17:45.503Z,4.30
2023-01-13T10:21:05.177Z,4.30
2023-01-13T10:24:25.392Z,4.30
2023-01-13T10:27:37.686Z,4.20
2023-01-13T10:30:48.282Z,4.20
2023-01-13T10:34:06.103Z,4.20
2023-01-13T10:37:26.651Z,4.20
2023-01-13T10:40:34.497Z,4.20
2023-01-13T10:43:43.777Z,4.24
2023-01-13T10:47:00.262Z,4.30
2023-01-13T10:50:29.870Z,4.30
2023-01-13T10:53:51.551Z,4.30
2023-01-13T10:57:22.564Z,4.40
2023-01-13T11:00:36.726Z,4.40
2023-01-13T11:03:48.306Z,4.40
2023-01-13T11:06:56.446Z,4.40
2023-01-13T11:10:24.375Z,4.40
2023-01-13T11:13:59.435Z,4.44
2023-01-13T11:17:27.289Z,4.50
2023-01-13T11:20:42.004Z,4.54
2023-01-13T11:24:03.690Z,4.60
2023-01-13T11:27:21.681Z,4.70
2023-01-13T11:30:42.732Z,4.70
2023-01-13T11:33:57.597Z,4.70
2023-01-13T11:37:11.071Z,4.72
2023-01-13T11:40:27.289Z,4.78
2023-01-13T11:43:47.079Z,4.80
2023-01-13T11:46:56.573Z,4.80
2023-01-13T11:50:06.037Z,4.80
2023-01-13T11:53:31.266Z,4.80
2023-01-13T11:57:05.528Z,4.90
2023-01-13T12:00:42.871Z,4.90
2023-01-13T12:04:01.391Z,5.00
2023-01-13T12:07:23.317Z,5.10
2023-01-13T12:10:47.935Z,5.20
2023-01-13T12:14:18.550Z,5.30
2023-01-13T12:17:36.794Z,5.40
2023-01-13T12:21:00.159Z,5.46
2023-01-13T12:24:24.425Z,5.60
2023-01-13T12:27:42.994Z,5.66
2023-01-13T12:30:59.515Z,5.70
2023-01-13T12:34:32.622Z,5.72
2023-01-13T12:37:52.297Z,5.78
2023-01-13T12:41:13.551Z,5.72
2023-01-13T12:44:22.018Z,5.70
2023-01-13T12:47:43.585Z,5.68
2023-01-13T12:51:06.175Z,5.60
2023-01-13T12:54:22.950Z,5.52
2023-01-13T12:57:34.213Z,5.40
2023-01-13T13:01:02.032Z,5.32
2023-01-13T13:04:19.428Z,5.30
2023-01-13T13:07:38.700Z,5.20
2023-01-13T13:11:04.295Z,5.12
2023-01-13T13:14:16.671Z,5.10
2023-01-13T13:17:47.330Z,5.02
2023-01-13T13:21:05.685Z,5.00
2023-01-13T13:24:17.219Z,5.00
2023-01-13T13:27:40.664Z,5.00
2023-01-13T13:31:06.150Z,5.00
2023-01-13T13:34:34.532Z,5.00
2023-01-13T13:38:18.829Z,4.90
2023-01-13T13:41:46.625Z,4.90
2023-01-13T13:45:12.960Z,4.86
2023-01-13T13:48:30.822Z,4.80
2023-01-13T13:51:46.628Z,4.74
2023-01-13T13:54:58.267Z,4.70
2023-01-13T13:58:07.202Z,4.70
2023-01-13T14:01:29.819Z,4.72
2023-01-13T14:04:42.114Z,4.70
2023-01-13T14:07:52.882Z,4.70
2023-01-13T14:11:00.992Z,4.62
2023-01-13T14:14:17.315Z,4.60
2023-01-13T14:17:30.204Z,4.50
2023-01-13T14:20:38.891Z,4.40
2023-01-13T14:23:57.435Z,4.40
2023-01-13T14:30:34.347Z,4.40
2023-01-13T14:33:47.516Z,4.40
2023-01-13T14:36:56.455Z,4.40
2023-01-13T14:40:05.067Z,4.40
2023-01-13T14:43:19.726Z,4.40
2023-01-13T14:46:37.720Z,4.40
2023-01-13T14:50:02.819Z,4.40
2023-01-13T14:53:36.810Z,4.30
2023-01-13T14:57:09.603Z,4.30
2023-01-13T15:00:28.175Z,4.30
2023-01-13T15:03:45.121Z,4.30
2023-01-13T15:06:56.051Z,4.30
2023-01-13T15:10:07.174Z,4.30
2023-01-13T15:13:35.728Z,4.30
2023-01-13T15:16:44.871Z,4.30
2023-01-13T15:19:54.574Z,4.30
2023-01-13T15:23:02.423Z,4.30
2023-01-13T15:26:25.960Z,4.30
2023-01-13T15:29:34.645Z,4.30
2023-01-13T15:32:43.163Z,4.30
2023-01-13T15:35:54.017Z,4.30
2023-01-13T15:39:03.264Z,4.30
2023-01-13T15:42:31.639Z,4.30
2023-01-13T15:45:59.626Z,4.30
2023-01-13T15:49:16.393Z,4.30
2023-01-13T15:52:28.634Z,4.32
2023-01-13T15:55:53.739Z,4.40
2023-01-13T15:59:02.991Z,4.40
2023-01-13T16:02:18.393Z,4.40
2023-01-13T16:05:29.030Z,4.40
2023-01-13T16:08:37.271Z,4.40
2023-01-13T16:11:45.608Z,4.40
2023-01-13T16:14:53.522Z,4.40
2023-01-13T16:18:05.353Z,4.40
2023-01-13T16:21:15.849Z,4.38
2023-01-13T16:24:24.301Z,4.40
2023-01-13T16:27:32.194Z,4.30
2023-01-13T16:30:42.335Z,4.30
2023-01-13T16:33:50.352Z,4.30
2023-01-13T16:36:58.210Z,4.30
2023-01-13T16:40:06.994Z,4.30
2023-01-13T16:43:17.272Z,4.32
2023-01-13T16:46:28.547Z,4.36
2023-01-13T16:49:36.339Z,4.40
2023-01-13T16:52:44.395Z,4.40
2023-01-13T16:55:52.898Z,4.40
2023-01-13T16:59:07.809Z,4.40
2023-01-13T17:02:21.044Z,4.30
2023-01-13T17:05:29.780Z,4.30
2023-01-13T17:08:37.584Z,4.30
2023-01-13T17:11:46.002Z,4.24
2023-01-13T17:14:53.865Z,4.18
2023-01-13T17:18:01.962Z,4.10
2023-01-13T17:21:10.035Z,4.00
2023-01-13T17:24:18.342Z,4.00
2023-01-13T17:27:26.095Z,4.00
2023-01-13T17:30:34.047Z,4.00
2023-01-13T17:33:42.126Z,4.00
2023-01-13T17:36:50.577Z,4.00
2023-01-13T17:39:58.567Z,3.90
2023-01-13T17:43:06.546Z,3.90
2023-01-13T17:46:18.746Z,3.90
2023-01-13T17:49:26.793Z,3.82
2023-01-13T17:52:34.710Z,3.80
2023-01-13T17:55:43.142Z,3.90
2023-01-13T17:58:51.051Z,3.90
2023-01-13T18:01:59.208Z,3.90
2023-01-13T18:05:07.739Z,4.00
2023-01-13T18:08:15.956Z,4.00
2023-01-13T18:11:24.899Z,4.00
2023-01-13T18:14:33.311Z,4.00
2023-01-13T18:17:41.208Z,4.00
2023-01-13T18:21:08.589Z,4.00
2023-01-13T18:24:32.397Z,4.00
2023-01-13T18:27:42.094Z,4.00
2023-01-13T18:30:51.101Z,3.90
2023-01-13T18:33:59.410Z,3.88
2023-01-13T18:37:08.986Z,3.80
2023-01-13T18:40:17.787Z,3.70
2023-01-13T18:43:25.602Z,3.70
2023-01-13T18:46:35.186Z,3.60
2023-01-13T18:49:43.679Z,3.60
2023-01-13T18:52:51.862Z,3.60
2023-01-13T18:55:59.633Z,3.60
2023-01-13T18:59:08.209Z,3.60
2023-01-13T19:02:20.066Z,3.60
2023-01-13T19:05:28.015Z,3.60
2023-01-13T19:08:35.939Z,3.60
2023-01-13T19:11:46.823Z,3.60
2023-01-13T19:14:56.006Z,3.70
2023-01-13T19:18:04.114Z,3.80
2023-01-13T19:21:12.557Z,3.90
2023-01-13T19:24:22.243Z,4.00
2023-01-13T19:27:31.637Z,4.08
2023-01-13T19:30:40.601Z,4.10
2023-01-13T19:33:50.077Z,4.20
2023-01-13T19:36:59.978Z,4.20
2023-01-13T19:40:11.337Z,4.30
2023-01-13T19:43:37.119Z,4.30
2023-01-13T19:46:47.469Z,4.40
2023-01-13T19:49:55.413Z,4.40
2023-01-13T19:53:03.238Z,4.40
2023-01-13T19:56:16.184Z,4.40
2023-01-13T19:59:29.303Z,4.40
2023-01-13T20:02:37.643Z,4.40
2023-01-13T20:05:45.623Z,4.40
2023-01-13T20:08:53.985Z,4.40
2023-01-13T20:12:03.803Z,4.42
2023-01-13T20:15:12.052Z,4.46
2023-01-13T20:18:19.850Z,4.50
2023-01-13T20:21:27.996Z,4.46
2023-01-13T20:24:35.742Z,4.40
2023-01-13T20:27:45.077Z,4.42
2023-01-13T20:30:53.466Z,4.44
2023-01-13T20:34:01.688Z,4.44
2023-01-13T20:37:09.404Z,4.48
2023-01-13T20:40:18.962Z,4.44
2023-01-13T20:43:27.991Z,4.50
2023-01-13T20:46:35.960Z,4.48
2023-01-13T20:49:44.206Z,4.48
2023-01-13T20:52:52.783Z,4.44
2023-01-13T20:56:00.617Z,4.46
2023-01-13T20:59:08.705Z,4.44
2023-01-13T21:02:19.418Z,4.46
2023-01-13T21:05:28.843Z,4.44
2023-01-13T21:08:36.957Z,4.40
2023-01-13T21:12:08.046Z,4.40
2023-01-13T21:15:20.330Z,4.40
2023-01-13T21:18:45.913Z,4.40
2023-01-13T21:21:53.931Z,4.40
2023-01-13T21:25:02.676Z,4.40
2023-01-13T21:28:14.279Z,4.40
2023-01-13T21:31:22.672Z,4.40
2023-01-13T21:34:30.614Z,4.40
2023-01-13T21:37:42.147Z,4.40
2023-01-13T21:41:01.558Z,4.42
2023-01-13T21:44:33.415Z,4.50
2023-01-13T21:47:50.405Z,4.50
2023-01-13T21:51:05.153Z,4.50
2023-01-13T21:54:13.439Z,4.50
2023-01-13T21:57:21.320Z,4.50
2023-01-13T22:00:34.220Z,4.50
2023-01-13T22:04:01.251Z,4.50
2023-01-13T22:07:08.937Z,4.50
2023-01-13T22:10:19.881Z,4.50
2023-01-13T22:13:47.054Z,4.40
2023-01-13T22:17:00.466Z,4.40
2023-01-13T22:20:11.286Z,4.32
2023-01-13T22:23:21.500Z,4.30
2023-01-13T22:26:30.023Z,4.30
2023-01-13T22:29:38.064Z,4.30
2023-01-13T22:32:46.717Z,4.30
2023-01-13T22:35:59.956Z,4.30
2023-01-13T22:39:08.879Z,4.30
2023-01-13T22:42:17.011Z,4.30
2023-01-13T22:45:25.009Z,4.20
2023-01-13T22:48:32.926Z,4.20
2023-01-13T22:51:41.138Z,4.10
2023-01-13T22:54:49.431Z,4.12
2023-01-13T22:57:57.155Z,4.20
2023-01-13T23:01:16.150Z,4.20
2023-01-13T23:04:24.196Z,4.20
2023-01-13T23:07:32.527Z,4.20
2023-01-13T23:10:41.051Z,4.30
2023-01-13T23:13:49.402Z,4.30
2023-01-13T23:16:57.739Z,4.30
2023-01-13T23:20:06.591Z,4.30
2023-01-13T23:23:14.459Z,4.30
2023-01-13T23:26:23.471Z,4.30
2023-01-13T23:29:31.286Z,4.30
2023-01-13T23:32:40.304Z,4.30
2023-01-13T23:35:58.005Z,4.30
2023-01-13T23:39:06.449Z,4.30
2023-01-13T23:42:14.666Z,4.30
2023-01-13T23:45:22.648Z,4.30
2023-01-13T23:48:30.823Z,4.30
2023-01-13T23:51:38.936Z,4.30
2023-01-13T23:54:47.131Z,4.30
2023-01-13T23:57:55.303Z,4.30
